Latest Coastal Weather Observations for Evans Head

IDN60701

Issued at 4:15 am EST Thursday 24 July 2014 (issued every 10 minutes, with the page automatically refreshed every 10 minutes)

About coastal observations | Map of coastal stations | Coastal observations for NSW | Marine services | Other Formats
Station Details ID: 058212 Name: EVANS HEAD RAAF BOMBING RANGE AWS Lat: -29.18 Lon: 153.40 Height: 62.5 m
Data from the previous 72 hours. | See also: Recent months at Evans Head
Date/Time
EST
Temp

°C
Wind Pressure Rain
since 9am
mm
Weather Cloud Vis
km
Sea
Height
m
Swell
Dir
 
Speed
knots
Gust
knots
hPa Trend Height
m
Period
s
Dir
24/04:00am 12.0 W 7 9 1021.4 - 0.0 - - - - - - -
24/03:30am 12.3 WSW 7 9 1021.5 - 0.0 - - - - - - -
24/03:00am 12.4 W 8 9 1021.5 - 0.0 - - - - - - -
24/02:30am 12.5 W 6 8 1021.7 - 0.0 - - - - - - -
24/02:00am 13.0 W 6 7 1021.5 - 0.0 - - - - - - -
24/01:30am 12.7 W 7 8 1022.2 - 0.0 - - - - - - -
24/01:00am 13.0 WSW 7 8 1022.2 - 0.0 - - - - - - -
24/12:30am 13.2 W 7 8 1022.3 - 0.0 - - - - - - -
24/12:00am 13.2 W 7 8 1022.2 - 0.0 - - - - - - -
 
Date/Time
EST
Temp

°C
Wind Pressure Rain
since 9am
mm
Weather Cloud Vis
km
Sea
Height
m
Swell
Dir
 
Speed
knots
Gust
knots
hPa Trend Height
m
Period
s
Dir
23/11:30pm 13.3 WSW 8 10 1022.6 - 0.0 - - - - - - -
23/11:00pm 13.0 WSW 8 9 1022.7 - 0.0 - - - - - - -
23/10:30pm 13.7 WSW 6 7 1022.7 - 0.0 - - - - - - -
23/10:00pm 14.5 ESE 3 5 1022.7 - 0.0 - - - - - - -
23/09:30pm 14.7 SE 6 8 1022.4 - 0.0 - - - - - - -
23/09:00pm 14.8 SE 8 10 1022.5 - 0.0 - - - - - - -
23/08:30pm 14.7 SE 8 10 1022.5 - 0.0 - - - - - - -
23/08:00pm 14.6 SE 7 10 1022.5 - 0.0 - - - - - - -
23/07:30pm 14.6 SE 8 11 1022.2 - 0.0 - - - - - - -
23/07:00pm 14.3 SE 7 9 1022.5 - 0.0 - - - - - - -
23/06:30pm 14.7 SE 7 10 1022.4 - 0.0 - - - - - - -
23/06:00pm 14.3 SSE 9 11 1022.1 - 0.0 - - - - - - -
23/05:30pm 14.5 SSE 8 11 1022.1 - 0.0 - - - - - - -
23/05:00pm 14.9 SSE 9 13 1021.4 - 0.0 - - - - - - -
23/04:30pm 15.5 SSE 9 12 1021.4 - 0.0 - - - - - - -
23/04:00pm 16.6 SSE 10 14 1021.4 - 0.0 - - - - - - -
23/03:30pm 16.8 S 10 16 1021.4 - 0.0 - - - - - - -
23/03:00pm 17.8 S 12 16 1021.1 - 0.0 - - - - - - -
23/02:30pm 17.8 S 11 16 1021.1 - 0.0 - - - - - - -
23/02:00pm 17.7 S 12 18 1020.9 - 0.0 - - - - - - -
23/01:30pm 17.8 S 13 17 1021.1 - 0.0 - - - - - - -
23/01:00pm 18.1 S 10 15 1021.4 - 0.0 - - - - - - -
23/12:30pm 16.9 S 10 14 1021.9 - 0.0 - - - - - - -
23/12:00pm 16.9 S 10 15 1022.3 - 0.0 - - - - - - -
23/11:30am 17.7 SSW 10 14 1022.9 - 0.0 - - - - - - -
23/11:00am 16.5 S 11 15 1023.2 - 0.0 - - - - - - -
23/10:30am 16.9 SSW 8 13 1023.6 - 0.0 - - - - - - -
23/10:00am 15.8 SW 7 11 1023.9 - 0.0 - - - - - - -
23/09:30am 15.0 SW 7 11 1023.9 - 0.0 - - - - - - -
23/09:00am 13.2 SW 9 14 1023.7 - 5.0 - - - - - - -
23/08:30am 12.6 WSW 10 19 1023.4 - 5.0 - - - - - - -
23/08:00am 10.9 WSW 11 13 1023.1 - 5.0 - - - - - - -
23/07:30am 10.0 WSW 10 14 1022.9 - 5.0 - - - - - - -
23/07:00am 10.0 WSW 11 15 1022.6 - 5.0 - - - - - - -
23/06:30am 10.0 WSW 11 14 1022.1 - 5.0 - - - - - - -
23/06:00am 9.9 WSW 10 14 1021.6 - 5.0 - - - - - - -
23/05:30am 10.0 WSW 10 13 1021.4 - 5.0 - - - - - - -
23/05:00am 10.2 WSW 10 14 1021.2 - 5.0 - - - - - - -
23/04:30am 10.3 WSW 9 12 1021.0 - 5.0 - - - - - - -
23/04:00am 10.5 WSW 9 12 1020.9 - 5.0 - - - - - - -
23/03:30am 10.5 WSW 9 12 1021.0 - 5.0 - - - - - - -
23/03:00am 10.6 WSW 9 12 1021.3 - 5.0 - - - - - - -
23/02:30am 11.0 WSW 10 13 1021.2 - 5.0 - - - - - - -
23/02:00am 11.2 WSW 11 15 1021.4 - 5.0 - - - - - - -
23/01:30am 11.2 WSW 11 14 1021.5 - 5.0 - - - - - - -
23/01:00am 11.0 WSW 9 12 1021.6 - 5.0 - - - - - - -
23/12:30am 11.5 WSW 9 12 1021.6 - 5.0 - - - - - - -
23/12:00am 11.7 WSW 9 11 1021.8 - 5.0 - - - - - - -
 
Date/Time
EST
Temp

°C
Wind Pressure Rain
since 9am
mm
Weather Cloud Vis
km
Sea
Height
m
Swell
Dir
 
Speed
knots
Gust
knots
hPa Trend Height
m
Period
s
Dir
22/11:30pm 11.8 WSW 10 13 1022.0 - 5.0 - - - - - - -
22/11:00pm 11.7 WSW 8 12 1021.9 - 5.0 - - - - - - -
22/10:30pm 12.1 SW 9 13 1022.0 - 5.0 - - - - - - -
22/10:00pm 12.0 WSW 9 12 1022.0 - 5.0 - - - - - - -
22/09:30pm 12.2 WSW 9 13 1022.4 - 5.0 - - - - - - -
22/09:00pm 12.5 W 7 11 1022.2 - 5.0 - - - - - - -
22/08:30pm 13.0 SSW 7 11 1022.1 - 5.0 - - - - - - -
22/08:00pm 13.1 WSW 8 11 1022.0 - 5.0 - - - - - - -
22/07:30pm 13.2 W 6 8 1022.2 - 5.0 - - - - - - -
22/07:00pm 13.5 W 7 8 1021.9 - 5.0 - - - - - - -
22/06:30pm 13.8 WSW 6 7 1021.3 - 5.0 - - - - - - -
22/06:00pm 13.7 WSW 5 8 1021.4 - 5.0 Recent precip. - - - - - -
22/05:30pm 13.6 NW 5 8 1021.2 - 4.8 - - - - - - -
22/05:00pm 13.6 SE 10 16 1020.9 - 2.8 - - - - - - -
22/04:30pm 15.2 SSE 7 10 1020.2 - 1.0 - - - - - - -
22/04:00pm 15.9 SSE 8 10 1020.0 - 1.0 - - - - - - -
22/03:30pm 15.7 SSE 7 11 1020.0 - 1.0 - - - - - - -
22/03:00pm 17.0 SSE 6 9 1019.6 - 1.0 - - - - - - -
22/02:30pm 16.8 S 7 11 1019.8 - 1.0 - - - - - - -
22/02:00pm 17.1 S 6 9 1019.5 - 1.0 - - - - - - -
22/01:30pm 16.0 S 8 10 1020.1 - 0.6 - - - - - - -
22/01:00pm 16.0 W 3 4 1020.3 - 0.6 - - - - - - -
22/12:30pm 17.4 S 7 12 1020.6 - 0.0 - - - - - - -
22/12:00pm 17.0 SSW 7 10 1021.1 - 0.0 - - - - - - -
22/11:30am 16.6 S 6 10 1021.8 - 0.0 - - - - - - -
22/11:00am 16.4 SSW 6 8 1022.3 - 0.0 - - - - - - -
22/10:30am 16.1 SW 5 7 1022.4 - 0.0 - - - - - - -
22/10:00am 15.1 WSW 6 8 1022.8 - 0.0 - - - - - - -
22/09:30am 14.3 W 5 7 1022.9 - 0.0 - - - - - - -
22/09:00am 13.6 W 5 9 1023.0 - 12.8 - - - - - - -
22/08:30am 13.6 WSW 6 8 1022.8 - 12.8 - - - - - - -
22/08:00am 13.3 WSW 7 9 1022.3 - 12.8 - - - - - - -
22/07:30am 12.4 W 7 8 1022.3 - 12.8 - - - - - - -
22/07:00am 12.2 WSW 7 9 1022.0 - 12.8 - - - - - - -
22/06:30am 12.0 W 6 8 1021.7 - 12.8 - - - - - - -
22/06:00am 12.2 W 7 9 1021.5 - 12.8 - - - - - - -
22/05:30am 12.1 W 5 8 1021.4 - 12.8 - - - - - - -
22/05:00am 11.9 NW 5 6 1021.2 - 12.8 - - - - - - -
22/04:30am 12.1 WSW 7 8 1021.2 - 12.8 - - - - - - -
22/04:00am 11.8 W 7 8 1021.1 - 12.8 - - - - - - -
22/03:30am 11.8 W 7 8 1021.2 - 12.8 - - - - - - -
22/03:00am 12.0 WSW 7 10 1021.2 - 12.8 - - - - - - -
22/02:30am 12.2 W 5 8 1021.4 - 12.8 - - - - - - -
22/02:00am 12.1 WSW 6 8 1021.5 - 12.8 - - - - - - -
22/01:30am 12.0 WSW 6 7 1021.7 - 12.8 - - - - - - -
22/01:00am 11.9 W 5 8 1021.9 - 12.6 - - - - - - -
22/12:30am 12.4 WNW 5 7 1022.1 - 12.6 - - - - - - -
22/12:00am 12.5 WSW 7 8 1022.1 - 12.6 - - - - - - -
 
Date/Time
EST
Temp

°C
Wind Pressure Rain
since 9am
mm
Weather Cloud Vis
km
Sea
Height
m
Swell
Dir
 
Speed
knots
Gust
knots
hPa Trend Height
m
Period
s
Dir
21/11:30pm 12.7 W 6 7 1022.2 - 12.6 - - - - - - -
21/11:00pm 12.5 W 6 7 1022.4 - 12.6 - - - - - - -
21/10:30pm 12.5 W 7 9 1022.5 - 12.6 - - - - - - -
21/10:00pm 12.8 SW 7 9 1022.7 - 12.6 - - - - - - -
21/09:30pm 12.9 WSW 7 8 1022.9 - 12.6 - - - - - - -
21/09:00pm 13.0 WSW 7 9 1022.9 - 12.6 Rain - - - - - -
21/08:30pm 13.1 SW 8 12 1022.9 - 12.4 - - - - - - -
21/08:00pm 13.1 SW 7 9 1022.8 - 12.4 - - - - - - -
21/07:30pm 13.6 WSW 7 9 1022.8 - 12.4 - - - - - - -
21/07:00pm 14.0 W 5 6 1022.9 - 12.4 - - - - - - -
21/06:30pm 14.2 W 4 5 1022.7 - 12.4 - - - - - - -
21/06:00pm 14.1 S 6 8 1022.5 - 12.2 Recent precip. - - - - - -
21/05:30pm 14.4 SE 6 8 1022.2 - 12.2 - - - - - - -
21/05:00pm 15.2 SW 5 8 1021.9 - 11.8 - - - - - - -
21/04:30pm 15.5 SW 7 11 1021.7 - 11.8 - - - - - - -
21/04:00pm 16.1 SSW 9 12 1021.5 - 11.8 - - - - - - -
21/03:30pm 16.4 S 11 16 1021.5 - 11.8 - - - - - - -
21/03:00pm 16.7 S 12 17 1021.2 - 11.8 - - - - - - -
21/02:30pm 16.6 SSW 9 13 1021.3 - 11.8 - - - - - - -
21/02:00pm 16.5 S 10 15 1021.4 - 11.8 - - - - - - -
21/01:30pm 16.6 S 10 14 1021.4 - 11.8 - - - - - - -
21/01:00pm 16.4 SSW 7 10 1021.8 - 11.8 - - - - - - -
21/12:30pm 15.4 SSW 7 10 1022.4 - 11.8 - - - - - - -
21/12:00pm 14.4 SW 8 11 1023.0 - 11.8 Recent precip. - - - - - -
21/11:30am 14.2 WSW 5 7 1023.4 - 11.8 - - - - - - -
21/11:00am 13.9 WSW 2 5 1024.0 - 11.6 - - - - - - -
21/10:30am 13.8 ESE 6 8 1024.2 - 9.8 - - - - - - -
21/10:00am 14.0 SSW 9 12 1024.2 - 0.0 - - - - - - -
21/09:30am 14.0 SW 11 17 1024.2 - 0.0 - - - - - - -
21/09:00am 13.5 SW 9 14 1024.1 - 9.4 - - - - - - -
21/08:30am 12.8 WSW 9 12 1024.1 - 9.4 - - - - - - -
21/08:00am 12.8 SW 9 12 1024.0 - 9.4 - - - - - - -
21/07:30am 12.8 SSW 7 8 1023.6 - 9.2 - - - - - - -
21/07:00am 12.8 S 15 20 1023.3 - 7.2 - - - - - - -
21/06:30am 12.2 SW 10 14 1022.9 - 6.8 - - - - - - -
21/06:00am 12.1 SW 8 12 1022.8 - 6.8 Recent precip. - - - - - -
21/05:30am 12.2 SW 11 17 1022.5 - 5.6 - - - - - - -
21/05:00am 12.2 SW 10 14 1022.1 - 3.6 - - - - - - -
21/04:30am 12.2 SSW 10 15 1022.1 - 2.6 - - - - - - -

Other Formats:

Comma delimited format used in spreadsheet applications
http://www.bom.gov.au/fwo/IDN60701/IDN60701.94598.axf

JavaScript Object Notation format (JSON) in row-major order
http://www.bom.gov.au/fwo/IDN60701/IDN60701.94598.json